• Join FlightAware (Why Join?)
  • Login
  • US Flag 
09:44PM EDT


 

Airport Tracker/Info


-or-


 

Live Flight TrackerFlight Track Log ✈ DAL6067 ✈ 19-Apr-2013 ✈ KDTW - KCMH

Flight Track Log - Related Links

Times and Time Zones

All times are in EDT time to prevent confusion due to time zone crossing. See the DAL6067 flight status page for this flight to view local times or setup timezone preferences in your user account.

Time Position Orientation Groundspeed Altitude Reporting Facility
EDT Latitude Longitude Course Direction KTS MPH feet Rate Location/Type
12:17PM 42.2058 -83.3528 200° South 143 165 1,300  Level Cleveland Center
12:18PM 42.1642 -83.3567 184° South 197 227 3,000 2,340 Climbing Cleveland Center
12:19PM 42.1014 -83.3650 186° South 221 254 5,900 2,640 Climbing Cleveland Center
12:20PM 41.9762 -83.3026 180° South  Level Estimated
12:20PM 42.0367 -83.3706 184° South 224 258 8,700  Level Cleveland Center
12:21PM 41.8974 -83.2858 180° South  Level Estimated
12:21PM 41.9783 -83.3625 174° South 213 245 11,200  Level Cleveland Center
12:22PM 41.8224 -83.3224 200° South  Level FlightAware Approximate
12:22PM 41.9303 -83.3631 180° South 218 251 13,100  Level Cleveland Center
12:23PM 41.8658 -83.3603 178° South 228 262 14,100 1,260 Climbing Cleveland Center
12:24PM 41.7908 -83.3544 177° South 255 293 15,700 960 Climbing Cleveland Center
12:25PM 41.7139 -83.3483 177° South 273 314 16,100 180 Climbing Cleveland Center
12:26PM 41.6328 -83.3392 175° South 289 333 16,100 -60 Level Cleveland Center
12:27PM 41.5539 -83.3331 177° South 289 333 16,000 -60 Descending Cleveland Center
12:28PM 41.4808 -83.3272 177° South 278 320 16,000  Level Cleveland Center
12:29PM 41.4061 -83.3183 175° South 273 314 16,000  Level Cleveland Center
12:30PM 41.3331 -83.3153 178° South 273 314 16,000  Level Cleveland Center
12:31PM 41.2603 -83.3094 177° South 273 314 16,000  Level Cleveland Center
12:32PM 41.1897 -83.3011 175° South 273 314 16,000  Level Cleveland Center
12:33PM 41.1167 -83.2981 178° South 268 308 16,000 -60 Level Cleveland Center
12:34PM 41.0461 -83.2894 175° South 263 303 15,900 -780 Descending Cleveland Center
12:35PM 40.9692 -83.2836 177° South 270 311 14,500 -1,560 Descending Cleveland Center
12:36PM 40.8900 -83.2803 178° South 281 323 12,800 -1,740 Descending Cleveland Center
12:37PM 40.8047 -83.2686 174° South 289 333 11,100 -1,020 Descending Cleveland Center
12:39PM 40.7022 -83.2597 176° South 229 264 10,100 -480 Descending Indianapolis Center
12:40PM 40.6342 -83.2558 178° South 238 274 9,900 -60 Descending Indianapolis Center
12:41PM 40.5625 -83.2492 176° South 252 290 10,000  Climbing Indianapolis Center
12:42PM 40.4717 -83.2436 177° South 254 292 10,000 -60 Level Indianapolis Center
12:43PM 40.4256 -83.2092 150° Southeast 268 308 9,900  Descending Indianapolis Center
12:43PM 40.4022 -83.1861 143° Southeast 279 321 10,000  Climbing Indianapolis Center
12:44PM 40.3675 -83.1442 137° Southeast 269 310 9,900 -60 Descending Indianapolis Center
12:45PM 40.3194 -83.0864 137° Southeast 238 274 9,900  Level Indianapolis Center
12:46PM 40.2719 -83.0294 138° Southeast 229 264 10,000 -240 Climbing Indianapolis Center
12:47PM 40.2189 -82.9675 138° Southeast 249 287 9,500 -720 Descending Indianapolis Center
12:47PM 40.1931 -82.9403 141° Southeast 248 285 9,000 -1,200 Descending Indianapolis Center
12:48PM 40.1614 -82.8994 135° Southeast 238 274 8,300 -1,020 Descending Indianapolis Center
12:48PM 40.1428 -82.8797 141° Southeast 240 276 8,000 -1,140 Descending Indianapolis Center
12:49PM 40.1078 -82.8392 138° Southeast 247 284 7,200 -1,200 Descending Indianapolis Center
12:49PM 40.0886 -82.8136 134° Southeast 252 290 6,800 -1,080 Descending Indianapolis Center
12:50PM 40.0878 -82.7525 91° East 275 316 6,100 -1,020 Descending Indianapolis Center
12:50PM 40.0878 -82.7292 90° East 284 327 5,900 -1,020 Descending Indianapolis Center
12:51PM 40.0906 -82.6522 87° East 274 315 5,100 -900 Descending Indianapolis Center
12:51PM 40.0900 -82.6314 92° East 269 310 5,000 -120 Descending Indianapolis Center
12:52PM 40.0867 -82.5619 94° East 257 296 5,000 -300 Level Indianapolis Center
12:53PM 40.0308 -82.5433 166° South 163 188 4,500 -780 Descending Indianapolis Center
12:54PM 40.0114 -82.5872 240° Southwest 139 160 3,400 -780 Descending Indianapolis Center
12:55PM 39.9975 -82.6403 251° West 138 159 3,000 -300 Descending Indianapolis Center
12:56PM 39.9894 -82.6806 255° West 146 168 2,900 -120 Descending Indianapolis Center